sensor_id;sensor_type;location;lat;lon;timestamp;temperature;humidity
59572;DHT22;59406;45.602;11.904;2023-04-29T00:00:08;21.60;84.00
59572;DHT22;59406;45.602;11.904;2023-04-29T00:02:34;21.60;83.70
59572;DHT22;59406;45.602;11.904;2023-04-29T00:05:00;21.60;82.90
59572;DHT22;59406;45.602;11.904;2023-04-29T00:07:32;21.60;82.70
59572;DHT22;59406;45.602;11.904;2023-04-29T00:09:58;21.60;81.50
59572;DHT22;59406;45.602;11.904;2023-04-29T00:12:25;21.60;81.20
59572;DHT22;59406;45.602;11.904;2023-04-29T00:14:51;21.60;82.10
59572;DHT22;59406;45.602;11.904;2023-04-29T00:17:17;21.60;82.80
59572;DHT22;59406;45.602;11.904;2023-04-29T00:19:43;21.60;83.40
59572;DHT22;59406;45.602;11.904;2023-04-29T00:22:09;21.50;83.90
59572;DHT22;59406;45.602;11.904;2023-04-29T00:24:35;21.60;84.60
59572;DHT22;59406;45.602;11.904;2023-04-29T00:27:01;21.50;85.40
59572;DHT22;59406;45.602;11.904;2023-04-29T00:29:28;21.60;85.80
59572;DHT22;59406;45.602;11.904;2023-04-29T00:31:54;21.60;86.00
59572;DHT22;59406;45.602;11.904;2023-04-29T00:34:20;21.50;86.30
59572;DHT22;59406;45.602;11.904;2023-04-29T00:36:46;21.60;86.50
59572;DHT22;59406;45.602;11.904;2023-04-29T00:39:12;21.60;85.60
59572;DHT22;59406;45.602;11.904;2023-04-29T00:41:38;21.60;85.30
59572;DHT22;59406;45.602;11.904;2023-04-29T00:44:04;21.50;84.70
59572;DHT22;59406;45.602;11.904;2023-04-29T00:46:30;21.50;84.60
59572;DHT22;59406;45.602;11.904;2023-04-29T00:48:56;21.50;85.10
59572;DHT22;59406;45.602;11.904;2023-04-29T00:51:22;21.50;85.10
59572;DHT22;59406;45.602;11.904;2023-04-29T00:53:48;21.60;86.20
59572;DHT22;59406;45.602;11.904;2023-04-29T00:56:14;21.50;86.40
59572;DHT22;59406;45.602;11.904;2023-04-29T00:58:42;21.60;85.70
59572;DHT22;59406;45.602;11.904;2023-04-29T01:01:18;21.50;84.90
59572;DHT22;59406;45.602;11.904;2023-04-29T01:03:45;21.50;84.60
59572;DHT22;59406;45.602;11.904;2023-04-29T01:06:29;21.50;84.80
59572;DHT22;59406;45.602;11.904;2023-04-29T01:12:20;21.40;86.70
59572;DHT22;59406;45.602;11.904;2023-04-29T01:17:38;21.50;86.60
59572;DHT22;59406;45.602;11.904;2023-04-29T01:20:08;21.40;85.60
59572;DHT22;59406;45.602;11.904;2023-04-29T01:22:35;21.50;84.50
59572;DHT22;59406;45.602;11.904;2023-04-29T01:25:01;21.40;83.30
59572;DHT22;59406;45.602;11.904;2023-04-29T01:27:33;21.50;84.00
59572;DHT22;59406;45.602;11.904;2023-04-29T01:42:09;21.40;83.40
59572;DHT22;59406;45.602;11.904;2023-04-29T01:44:40;21.50;83.60
59572;DHT22;59406;45.602;11.904;2023-04-29T01:47:11;21.40;83.60
59572;DHT22;59406;45.602;11.904;2023-04-29T01:49:38;21.50;84.30
59572;DHT22;59406;45.602;11.904;2023-04-29T01:52:04;21.40;84.60
59572;DHT22;59406;45.602;11.904;2023-04-29T01:54:32;21.40;84.20
59572;DHT22;59406;45.602;11.904;2023-04-29T01:57:01;21.50;84.00
59572;DHT22;59406;45.602;11.904;2023-04-29T01:59:27;21.40;84.50
59572;DHT22;59406;45.602;11.904;2023-04-29T02:01:53;21.40;84.40
59572;DHT22;59406;45.602;11.904;2023-04-29T02:04:21;21.40;84.30
59572;DHT22;59406;45.602;11.904;2023-04-29T02:06:50;21.40;84.00
59572;DHT22;59406;45.602;11.904;2023-04-29T02:09:17;21.30;83.90
59572;DHT22;59406;45.602;11.904;2023-04-29T02:11:43;21.40;84.30
59572;DHT22;59406;45.602;11.904;2023-04-29T02:14:09;21.30;84.40
59572;DHT22;59406;45.602;11.904;2023-04-29T02:16:37;21.50;84.50
59572;DHT22;59406;45.602;11.904;2023-04-29T02:19:03;21.40;84.30
59572;DHT22;59406;45.602;11.904;2023-04-29T02:21:29;21.40;83.90
59572;DHT22;59406;45.602;11.904;2023-04-29T02:23:56;21.30;83.80
59572;DHT22;59406;45.602;11.904;2023-04-29T02:26:22;21.40;84.40
59572;DHT22;59406;45.602;11.904;2023-04-29T02:28:48;21.40;84.60
59572;DHT22;59406;45.602;11.904;2023-04-29T02:31:14;21.30;84.60
59572;DHT22;59406;45.602;11.904;2023-04-29T02:33:40;21.30;84.70
59572;DHT22;59406;45.602;11.904;2023-04-29T02:36:06;21.40;84.00
59572;DHT22;59406;45.602;11.904;2023-04-29T02:38:32;21.40;83.60
59572;DHT22;59406;45.602;11.904;2023-04-29T02:40:58;21.40;83.80
59572;DHT22;59406;45.602;11.904;2023-04-29T02:43:24;21.30;83.80
59572;DHT22;59406;45.602;11.904;2023-04-29T02:45:51;21.30;83.70
59572;DHT22;59406;45.602;11.904;2023-04-29T02:48:16;21.40;83.40
59572;DHT22;59406;45.602;11.904;2023-04-29T02:50:42;21.30;83.10
59572;DHT22;59406;45.602;11.904;2023-04-29T02:53:08;21.30;83.40
59572;DHT22;59406;45.602;11.904;2023-04-29T02:55:34;21.40;83.20
59572;DHT22;59406;45.602;11.904;2023-04-29T02:58:00;21.30;83.50
59572;DHT22;59406;45.602;11.904;2023-04-29T03:00:26;21.30;83.70
59572;DHT22;59406;45.602;11.904;2023-04-29T03:02:51;21.30;84.20
59572;DHT22;59406;45.602;11.904;2023-04-29T03:05:17;21.30;84.40
59572;DHT22;59406;45.602;11.904;2023-04-29T03:07:44;21.30;84.30
59572;DHT22;59406;45.602;11.904;2023-04-29T03:10:10;21.30;84.30
59572;DHT22;59406;45.602;11.904;2023-04-29T03:12:36;21.30;83.50
59572;DHT22;59406;45.602;11.904;2023-04-29T03:15:05;21.30;83.50
59572;DHT22;59406;45.602;11.904;2023-04-29T03:17:32;21.30;83.00
59572;DHT22;59406;45.602;11.904;2023-04-29T03:19:59;21.30;82.80
59572;DHT22;59406;45.602;11.904;2023-04-29T03:22:25;21.40;83.00
59572;DHT22;59406;45.602;11.904;2023-04-29T03:24:51;21.30;82.80
59572;DHT22;59406;45.602;11.904;2023-04-29T03:27:17;21.20;82.40
59572;DHT22;59406;45.602;11.904;2023-04-29T03:29:43;21.30;82.20
59572;DHT22;59406;45.602;11.904;2023-04-29T03:32:09;21.30;82.60
59572;DHT22;59406;45.602;11.904;2023-04-29T03:34:35;21.20;83.00
59572;DHT22;59406;45.602;11.904;2023-04-29T03:37:01;21.30;82.90
59572;DHT22;59406;45.602;11.904;2023-04-29T03:39:27;21.20;83.20
59572;DHT22;59406;45.602;11.904;2023-04-29T03:41:57;21.30;84.10
59572;DHT22;59406;45.602;11.904;2023-04-29T03:44:24;21.30;84.90
59572;DHT22;59406;45.602;11.904;2023-04-29T03:46:51;21.20;85.50
59572;DHT22;59406;45.602;11.904;2023-04-29T03:49:17;21.30;86.00
59572;DHT22;59406;45.602;11.904;2023-04-29T03:51:43;21.30;85.90
59572;DHT22;59406;45.602;11.904;2023-04-29T03:54:12;21.30;85.80
59572;DHT22;59406;45.602;11.904;2023-04-29T03:56:38;21.30;86.30
59572;DHT22;59406;45.602;11.904;2023-04-29T03:59:04;21.30;86.50
59572;DHT22;59406;45.602;11.904;2023-04-29T04:01:30;21.30;85.60
59572;DHT22;59406;45.602;11.904;2023-04-29T04:03:56;21.20;85.00
59572;DHT22;59406;45.602;11.904;2023-04-29T04:06:22;21.30;85.70
59572;DHT22;59406;45.602;11.904;2023-04-29T04:08:48;21.30;86.60
59572;DHT22;59406;45.602;11.904;2023-04-29T04:11:14;21.20;85.90
59572;DHT22;59406;45.602;11.904;2023-04-29T04:13:41;21.30;85.20
59572;DHT22;59406;45.602;11.904;2023-04-29T04:16:08;21.20;85.50
59572;DHT22;59406;45.602;11.904;2023-04-29T04:18:36;21.20;86.40
59572;DHT22;59406;45.602;11.904;2023-04-29T04:21:09;21.20;85.80
59572;DHT22;59406;45.602;11.904;2023-04-29T04:23:36;21.20;85.80
59572;DHT22;59406;45.602;11.904;2023-04-29T04:26:05;21.20;85.10
59572;DHT22;59406;45.602;11.904;2023-04-29T04:28:31;21.20;85.20
59572;DHT22;59406;45.602;11.904;2023-04-29T04:30:57;21.30;85.70
59572;DHT22;59406;45.602;11.904;2023-04-29T04:33:24;21.20;85.10
59572;DHT22;59406;45.602;11.904;2023-04-29T04:35:50;21.20;84.60
59572;DHT22;59406;45.602;11.904;2023-04-29T04:38:16;21.20;84.60
59572;DHT22;59406;45.602;11.904;2023-04-29T04:40:42;21.10;84.30
59572;DHT22;59406;45.602;11.904;2023-04-29T04:43:08;21.20;84.30
59572;DHT22;59406;45.602;11.904;2023-04-29T04:45:34;21.20;83.40
59572;DHT22;59406;45.602;11.904;2023-04-29T04:48:01;21.20;84.00
59572;DHT22;59406;45.602;11.904;2023-04-29T04:50:28;21.10;84.00
59572;DHT22;59406;45.602;11.904;2023-04-29T04:52:55;21.10;84.20
59572;DHT22;59406;45.602;11.904;2023-04-29T04:55:22;21.20;84.40
59572;DHT22;59406;45.602;11.904;2023-04-29T04:57:48;21.20;84.30
59572;DHT22;59406;45.602;11.904;2023-04-29T05:00:14;21.10;84.40
59572;DHT22;59406;45.602;11.904;2023-04-29T05:02:40;21.20;84.50
59572;DHT22;59406;45.602;11.904;2023-04-29T05:05:06;21.10;84.20
59572;DHT22;59406;45.602;11.904;2023-04-29T05:07:32;21.10;83.90
59572;DHT22;59406;45.602;11.904;2023-04-29T05:10:02;21.20;83.50
59572;DHT22;59406;45.602;11.904;2023-04-29T05:12:28;21.20;83.40
59572;DHT22;59406;45.602;11.904;2023-04-29T05:14:57;21.20;83.00
59572;DHT22;59406;45.602;11.904;2023-04-29T05:17:23;21.10;83.50
59572;DHT22;59406;45.602;11.904;2023-04-29T05:19:49;21.10;83.50
59572;DHT22;59406;45.602;11.904;2023-04-29T05:22:14;21.10;84.10
59572;DHT22;59406;45.602;11.904;2023-04-29T05:24:40;21.10;83.90
59572;DHT22;59406;45.602;11.904;2023-04-29T05:27:06;21.10;83.50
59572;DHT22;59406;45.602;11.904;2023-04-29T05:29:32;21.20;83.60
59572;DHT22;59406;45.602;11.904;2023-04-29T05:31:58;21.10;83.70
59572;DHT22;59406;45.602;11.904;2023-04-29T05:34:24;21.10;84.30
59572;DHT22;59406;45.602;11.904;2023-04-29T05:36:50;21.10;84.80
59572;DHT22;59406;45.602;11.904;2023-04-29T05:39:15;21.20;84.80
59572;DHT22;59406;45.602;11.904;2023-04-29T05:41:42;21.00;84.90
59572;DHT22;59406;45.602;11.904;2023-04-29T05:44:08;21.20;85.10
59572;DHT22;59406;45.602;11.904;2023-04-29T05:46:34;21.20;84.90
59572;DHT22;59406;45.602;11.904;2023-04-29T05:49:00;21.20;84.90
59572;DHT22;59406;45.602;11.904;2023-04-29T05:51:25;21.20;85.20
59572;DHT22;59406;45.602;11.904;2023-04-29T05:53:53;21.20;85.60
59572;DHT22;59406;45.602;11.904;2023-04-29T05:58:48;21.20;86.80
59572;DHT22;59406;45.602;11.904;2023-04-29T06:01:14;21.10;87.20
59572;DHT22;59406;45.602;11.904;2023-04-29T06:03:43;21.10;87.40
59572;DHT22;59406;45.602;11.904;2023-04-29T06:06:09;21.20;87.60
59572;DHT22;59406;45.602;11.904;2023-04-29T06:08:41;21.20;87.50
59572;DHT22;59406;45.602;11.904;2023-04-29T06:11:07;21.20;86.50
59572;DHT22;59406;45.602;11.904;2023-04-29T06:13:33;21.20;86.40
59572;DHT22;59406;45.602;11.904;2023-04-29T06:15:59;21.20;85.70
59572;DHT22;59406;45.602;11.904;2023-04-29T06:18:25;21.10;86.00
59572;DHT22;59406;45.602;11.904;2023-04-29T06:20:51;21.20;86.70
59572;DHT22;59406;45.602;11.904;2023-04-29T06:23:17;21.30;86.80
59572;DHT22;59406;45.602;11.904;2023-04-29T06:25:43;21.30;86.20
59572;DHT22;59406;45.602;11.904;2023-04-29T06:28:09;21.20;85.60
59572;DHT22;59406;45.602;11.904;2023-04-29T06:30:35;21.20;85.40
59572;DHT22;59406;45.602;11.904;2023-04-29T06:33:01;21.30;85.10
59572;DHT22;59406;45.602;11.904;2023-04-29T06:35:27;21.30;85.40
59572;DHT22;59406;45.602;11.904;2023-04-29T06:37:53;21.20;85.20
59572;DHT22;59406;45.602;11.904;2023-04-29T06:40:21;21.30;85.90
59572;DHT22;59406;45.602;11.904;2023-04-29T06:42:47;21.20;85.80
59572;DHT22;59406;45.602;11.904;2023-04-29T06:45:13;21.20;85.30
59572;DHT22;59406;45.602;11.904;2023-04-29T06:47:39;21.30;84.30
59572;DHT22;59406;45.602;11.904;2023-04-29T06:50:05;21.30;84.50
59572;DHT22;59406;45.602;11.904;2023-04-29T06:52:31;21.30;84.70
59572;DHT22;59406;45.602;11.904;2023-04-29T06:54:58;21.30;85.10
59572;DHT22;59406;45.602;11.904;2023-04-29T06:57:24;21.40;85.90
59572;DHT22;59406;45.602;11.904;2023-04-29T06:59:50;21.30;86.20
59572;DHT22;59406;45.602;11.904;2023-04-29T07:02:17;21.30;86.10
59572;DHT22;59406;45.602;11.904;2023-04-29T07:04:43;21.30;86.00
59572;DHT22;59406;45.602;11.904;2023-04-29T07:07:09;21.30;85.40
59572;DHT22;59406;45.602;11.904;2023-04-29T07:09:35;21.30;84.80
59572;DHT22;59406;45.602;11.904;2023-04-29T07:12:01;21.40;83.70
59572;DHT22;59406;45.602;11.904;2023-04-29T07:14:27;21.30;83.20
59572;DHT22;59406;45.602;11.904;2023-04-29T07:16:53;21.40;83.30
59572;DHT22;59406;45.602;11.904;2023-04-29T07:19:19;21.40;84.00
59572;DHT22;59406;45.602;11.904;2023-04-29T07:21:45;21.40;83.70
59572;DHT22;59406;45.602;11.904;2023-04-29T07:24:12;21.40;83.90
59572;DHT22;59406;45.602;11.904;2023-04-29T07:26:38;21.40;83.90
59572;DHT22;59406;45.602;11.904;2023-04-29T07:29:05;21.40;83.30
59572;DHT22;59406;45.602;11.904;2023-04-29T07:31:31;21.40;82.80
59572;DHT22;59406;45.602;11.904;2023-04-29T07:33:57;21.50;82.10
59572;DHT22;59406;45.602;11.904;2023-04-29T07:36:23;21.50;81.90
59572;DHT22;59406;45.602;11.904;2023-04-29T07:38:49;21.50;82.50
59572;DHT22;59406;45.602;11.904;2023-04-29T07:41:14;21.50;82.40
59572;DHT22;59406;45.602;11.904;2023-04-29T07:43:40;21.60;82.90
59572;DHT22;59406;45.602;11.904;2023-04-29T07:46:06;21.60;82.30
59572;DHT22;59406;45.602;11.904;2023-04-29T07:48:37;21.60;81.30
59572;DHT22;59406;45.602;11.904;2023-04-29T07:51:04;21.60;80.90
59572;DHT22;59406;45.602;11.904;2023-04-29T07:53:31;21.60;82.30
59572;DHT22;59406;45.602;11.904;2023-04-29T07:55:57;21.60;81.40
59572;DHT22;59406;45.602;11.904;2023-04-29T07:58:23;21.60;81.50
59572;DHT22;59406;45.602;11.904;2023-04-29T08:00:49;21.70;82.70
59572;DHT22;59406;45.602;11.904;2023-04-29T08:03:15;21.60;82.20
59572;DHT22;59406;45.602;11.904;2023-04-29T08:05:41;21.60;82.10
59572;DHT22;59406;45.602;11.904;2023-04-29T08:08:09;21.70;82.40
59572;DHT22;59406;45.602;11.904;2023-04-29T08:10:37;21.80;82.90
59572;DHT22;59406;45.602;11.904;2023-04-29T08:13:05;21.70;82.50
59572;DHT22;59406;45.602;11.904;2023-04-29T08:15:31;21.70;81.10
59572;DHT22;59406;45.602;11.904;2023-04-29T08:17:58;21.70;81.50
59572;DHT22;59406;45.602;11.904;2023-04-29T08:20:24;21.70;81.50
59572;DHT22;59406;45.602;11.904;2023-04-29T08:22:50;21.70;80.50
59572;DHT22;59406;45.602;11.904;2023-04-29T08:25:15;21.60;80.70
59572;DHT22;59406;45.602;11.904;2023-04-29T08:27:42;21.70;80.60
59572;DHT22;59406;45.602;11.904;2023-04-29T08:30:10;21.70;80.40
59572;DHT22;59406;45.602;11.904;2023-04-29T08:32:37;21.70;80.80
59572;DHT22;59406;45.602;11.904;2023-04-29T08:35:03;21.70;81.00
59572;DHT22;59406;45.602;11.904;2023-04-29T08:37:29;21.70;81.50
59572;DHT22;59406;45.602;11.904;2023-04-29T08:39:55;21.70;82.40
59572;DHT22;59406;45.602;11.904;2023-04-29T08:42:34;21.70;82.60
59572;DHT22;59406;45.602;11.904;2023-04-29T08:45:02;21.70;81.30
59572;DHT22;59406;45.602;11.904;2023-04-29T08:47:32;21.70;81.90
59572;DHT22;59406;45.602;11.904;2023-04-29T08:50:04;21.80;81.50
59572;DHT22;59406;45.602;11.904;2023-04-29T08:52:31;21.80;81.30
59572;DHT22;59406;45.602;11.904;2023-04-29T08:55:00;21.80;80.20
59572;DHT22;59406;45.602;11.904;2023-04-29T08:57:35;21.90;80.00
59572;DHT22;59406;45.602;11.904;2023-04-29T09:00:06;21.80;80.50
59572;DHT22;59406;45.602;11.904;2023-04-29T09:02:38;21.80;81.90
59572;DHT22;59406;45.602;11.904;2023-04-29T09:05:09;21.80;80.90
59572;DHT22;59406;45.602;11.904;2023-04-29T09:07:40;21.80;81.10
59572;DHT22;59406;45.602;11.904;2023-04-29T09:10:07;21.80;81.40
59572;DHT22;59406;45.602;11.904;2023-04-29T09:12:33;21.80;82.20
59572;DHT22;59406;45.602;11.904;2023-04-29T09:15:01;21.90;82.50
59572;DHT22;59406;45.602;11.904;2023-04-29T09:17:43;21.90;82.90
59572;DHT22;59406;45.602;11.904;2023-04-29T09:20:28;21.80;83.80
59572;DHT22;59406;45.602;11.904;2023-04-29T09:22:59;21.90;84.00
59572;DHT22;59406;45.602;11.904;2023-04-29T09:25:26;21.90;83.00
59572;DHT22;59406;45.602;11.904;2023-04-29T09:27:53;21.90;82.80
59572;DHT22;59406;45.602;11.904;2023-04-29T09:30:21;21.90;82.30
59572;DHT22;59406;45.602;11.904;2023-04-29T09:33:06;21.90;81.40
59572;DHT22;59406;45.602;11.904;2023-04-29T09:35:33;21.90;81.80
59572;DHT22;59406;45.602;11.904;2023-04-29T09:40:34;21.80;82.20
59572;DHT22;59406;45.602;11.904;2023-04-29T09:43:01;21.80;82.30
59572;DHT22;59406;45.602;11.904;2023-04-29T09:45:38;21.90;82.40
59572;DHT22;59406;45.602;11.904;2023-04-29T09:48:05;21.80;82.80
59572;DHT22;59406;45.602;11.904;2023-04-29T09:50:32;21.90;81.80
59572;DHT22;59406;45.602;11.904;2023-04-29T09:52:58;21.90;81.50
59572;DHT22;59406;45.602;11.904;2023-04-29T09:55:25;22.00;80.60
59572;DHT22;59406;45.602;11.904;2023-04-29T09:57:57;21.90;80.90
59572;DHT22;59406;45.602;11.904;2023-04-29T10:00:24;21.80;80.30
59572;DHT22;59406;45.602;11.904;2023-04-29T10:02:53;21.90;80.00
59572;DHT22;59406;45.602;11.904;2023-04-29T10:05:20;21.90;79.50
59572;DHT22;59406;45.602;11.904;2023-04-29T10:07:47;21.90;79.30
59572;DHT22;59406;45.602;11.904;2023-04-29T10:10:15;21.90;79.70
59572;DHT22;59406;45.602;11.904;2023-04-29T10:12:42;21.90;79.30
59572;DHT22;59406;45.602;11.904;2023-04-29T10:17:57;21.90;77.60
59572;DHT22;59406;45.602;11.904;2023-04-29T10:20:24;21.90;78.50
59572;DHT22;59406;45.602;11.904;2023-04-29T10:22:52;21.90;78.90
59572;DHT22;59406;45.602;11.904;2023-04-29T10:25:20;21.90;80.30
59572;DHT22;59406;45.602;11.904;2023-04-29T10:27:48;21.90;80.90
59572;DHT22;59406;45.602;11.904;2023-04-29T10:30:17;21.90;79.90
59572;DHT22;59406;45.602;11.904;2023-04-29T10:32:44;22.00;80.10
59572;DHT22;59406;45.602;11.904;2023-04-29T10:35:11;21.90;79.40
59572;DHT22;59406;45.602;11.904;2023-04-29T10:37:42;21.90;79.40
59572;DHT22;59406;45.602;11.904;2023-04-29T10:42:50;22.00;79.10
59572;DHT22;59406;45.602;11.904;2023-04-29T10:45:29;21.90;79.50
59572;DHT22;59406;45.602;11.904;2023-04-29T10:50:59;22.00;79.10
59572;DHT22;59406;45.602;11.904;2023-04-29T10:53:27;22.00;78.50
59572;DHT22;59406;45.602;11.904;2023-04-29T10:55:57;22.00;79.40
59572;DHT22;59406;45.602;11.904;2023-04-29T11:01:13;22.00;77.50
59572;DHT22;59406;45.602;11.904;2023-04-29T11:03:56;22.00;78.90
59572;DHT22;59406;45.602;11.904;2023-04-29T11:09:02;22.10;82.70
59572;DHT22;59406;45.602;11.904;2023-04-29T11:11:41;22.00;81.10
59572;DHT22;59406;45.602;11.904;2023-04-29T11:14:11;22.10;78.20
59572;DHT22;59406;45.602;11.904;2023-04-29T11:16:37;22.20;78.80
59572;DHT22;59406;45.602;11.904;2023-04-29T11:19:14;22.00;79.50
59572;DHT22;59406;45.602;11.904;2023-04-29T11:21:41;22.10;81.80
59572;DHT22;59406;45.602;11.904;2023-04-29T11:24:07;22.10;81.40
59572;DHT22;59406;45.602;11.904;2023-04-29T11:26:34;22.10;81.20
59572;DHT22;59406;45.602;11.904;2023-04-29T11:29:00;22.10;81.90
59572;DHT22;59406;45.602;11.904;2023-04-29T11:31:30;22.20;82.30
59572;DHT22;59406;45.602;11.904;2023-04-29T11:33:56;22.10;83.20
59572;DHT22;59406;45.602;11.904;2023-04-29T11:36:22;22.20;82.10
59572;DHT22;59406;45.602;11.904;2023-04-29T11:38:48;22.20;81.50
59572;DHT22;59406;45.602;11.904;2023-04-29T11:41:14;22.10;80.50
59572;DHT22;59406;45.602;11.904;2023-04-29T11:43:41;22.20;80.10
59572;DHT22;59406;45.602;11.904;2023-04-29T11:46:12;22.20;79.00
59572;DHT22;59406;45.602;11.904;2023-04-29T11:48:45;22.20;77.90
59572;DHT22;59406;45.602;11.904;2023-04-29T11:51:16;22.10;80.10
59572;DHT22;59406;45.602;11.904;2023-04-29T11:53:42;22.10;81.00
59572;DHT22;59406;45.602;11.904;2023-04-29T11:56:09;22.20;81.00
59572;DHT22;59406;45.602;11.904;2023-04-29T11:58:36;22.20;80.40
59572;DHT22;59406;45.602;11.904;2023-04-29T12:01:03;22.10;79.60
59572;DHT22;59406;45.602;11.904;2023-04-29T12:03:31;22.10;79.80
59572;DHT22;59406;45.602;11.904;2023-04-29T12:05:58;22.10;79.70
59572;DHT22;59406;45.602;11.904;2023-04-29T12:08:27;22.10;79.70
59572;DHT22;59406;45.602;11.904;2023-04-29T12:10:56;22.20;80.50
59572;DHT22;59406;45.602;11.904;2023-04-29T12:13:25;22.20;81.00
59572;DHT22;59406;45.602;11.904;2023-04-29T12:15:51;22.20;79.60
59572;DHT22;59406;45.602;11.904;2023-04-29T12:18:18;22.20;79.70
59572;DHT22;59406;45.602;11.904;2023-04-29T12:20:45;22.20;79.50
59572;DHT22;59406;45.602;11.904;2023-04-29T12:23:17;22.20;79.00
59572;DHT22;59406;45.602;11.904;2023-04-29T12:25:51;22.20;79.60
59572;DHT22;59406;45.602;11.904;2023-04-29T12:28:18;22.10;80.60
59572;DHT22;59406;45.602;11.904;2023-04-29T12:30:45;22.20;80.60
59572;DHT22;59406;45.602;11.904;2023-04-29T12:35:48;22.20;78.30
59572;DHT22;59406;45.602;11.904;2023-04-29T12:38:25;22.20;79.70
59572;DHT22;59406;45.602;11.904;2023-04-29T12:41:04;22.20;78.30
59572;DHT22;59406;45.602;11.904;2023-04-29T12:43:32;22.20;80.00
59572;DHT22;59406;45.602;11.904;2023-04-29T12:46:05;22.20;80.50
59572;DHT22;59406;45.602;11.904;2023-04-29T12:48:33;22.20;79.60
59572;DHT22;59406;45.602;11.904;2023-04-29T12:51:00;22.30;79.50
59572;DHT22;59406;45.602;11.904;2023-04-29T12:53:28;22.20;79.20
59572;DHT22;59406;45.602;11.904;2023-04-29T12:55:54;22.30;79.30
59572;DHT22;59406;45.602;11.904;2023-04-29T12:58:20;22.20;80.10
59572;DHT22;59406;45.602;11.904;2023-04-29T13:00:46;22.20;80.10
59572;DHT22;59406;45.602;11.904;2023-04-29T13:03:12;22.20;79.50
59572;DHT22;59406;45.602;11.904;2023-04-29T13:05:39;22.20;79.20
59572;DHT22;59406;45.602;11.904;2023-04-29T13:08:06;22.20;79.60
59572;DHT22;59406;45.602;11.904;2023-04-29T13:10:33;22.20;79.80
59572;DHT22;59406;45.602;11.904;2023-04-29T13:13:00;22.20;79.80
59572;DHT22;59406;45.602;11.904;2023-04-29T13:15:26;22.20;79.40
59572;DHT22;59406;45.602;11.904;2023-04-29T13:17:52;22.20;79.70
59572;DHT22;59406;45.602;11.904;2023-04-29T13:20:18;22.20;79.80
59572;DHT22;59406;45.602;11.904;2023-04-29T13:22:45;22.20;79.50
59572;DHT22;59406;45.602;11.904;2023-04-29T13:25:11;22.30;80.60
59572;DHT22;59406;45.602;11.904;2023-04-29T13:27:38;22.30;80.40
59572;DHT22;59406;45.602;11.904;2023-04-29T13:30:07;22.30;80.00
59572;DHT22;59406;45.602;11.904;2023-04-29T13:32:33;22.30;81.20
59572;DHT22;59406;45.602;11.904;2023-04-29T13:34:59;22.30;80.70
59572;DHT22;59406;45.602;11.904;2023-04-29T13:37:25;22.30;80.00
59572;DHT22;59406;45.602;11.904;2023-04-29T13:39:51;22.20;79.50
59572;DHT22;59406;45.602;11.904;2023-04-29T13:42:17;22.30;80.30
59572;DHT22;59406;45.602;11.904;2023-04-29T13:44:43;22.20;81.00
59572;DHT22;59406;45.602;11.904;2023-04-29T13:47:12;22.30;81.30
59572;DHT22;59406;45.602;11.904;2023-04-29T13:49:39;22.30;81.90
59572;DHT22;59406;45.602;11.904;2023-04-29T13:52:06;22.40;82.00
59572;DHT22;59406;45.602;11.904;2023-04-29T13:54:33;22.30;82.10
59572;DHT22;59406;45.602;11.904;2023-04-29T13:56:59;22.30;81.10
59572;DHT22;59406;45.602;11.904;2023-04-29T13:59:32;22.30;80.70
59572;DHT22;59406;45.602;11.904;2023-04-29T14:01:58;22.30;80.80
59572;DHT22;59406;45.602;11.904;2023-04-29T14:04:25;22.40;80.40
59572;DHT22;59406;45.602;11.904;2023-04-29T14:06:52;22.30;80.00
59572;DHT22;59406;45.602;11.904;2023-04-29T14:09:21;22.40;80.20
59572;DHT22;59406;45.602;11.904;2023-04-29T14:11:48;22.40;80.00
59572;DHT22;59406;45.602;11.904;2023-04-29T14:14:15;22.40;81.00
59572;DHT22;59406;45.602;11.904;2023-04-29T14:16:42;22.30;81.20
59572;DHT22;59406;45.602;11.904;2023-04-29T14:19:08;22.30;81.00
59572;DHT22;59406;45.602;11.904;2023-04-29T14:21:34;22.40;81.30
59572;DHT22;59406;45.602;11.904;2023-04-29T14:24:00;22.40;81.20
59572;DHT22;59406;45.602;11.904;2023-04-29T14:26:30;22.30;80.40
59572;DHT22;59406;45.602;11.904;2023-04-29T14:28:57;22.40;79.70
59572;DHT22;59406;45.602;11.904;2023-04-29T14:31:28;22.30;79.90
59572;DHT22;59406;45.602;11.904;2023-04-29T14:33:57;22.30;79.50
59572;DHT22;59406;45.602;11.904;2023-04-29T14:36:23;22.40;80.30
59572;DHT22;59406;45.602;11.904;2023-04-29T14:38:49;22.30;80.50
59572;DHT22;59406;45.602;11.904;2023-04-29T14:41:16;22.40;80.30
59572;DHT22;59406;45.602;11.904;2023-04-29T14:43:42;22.40;80.20
59572;DHT22;59406;45.602;11.904;2023-04-29T14:46:08;22.40;80.00
59572;DHT22;59406;45.602;11.904;2023-04-29T14:48:34;22.40;80.00
59572;DHT22;59406;45.602;11.904;2023-04-29T14:51:00;22.40;80.70
59572;DHT22;59406;45.602;11.904;2023-04-29T14:53:26;22.50;81.10
59572;DHT22;59406;45.602;11.904;2023-04-29T14:55:52;22.40;80.80
59572;DHT22;59406;45.602;11.904;2023-04-29T14:58:18;22.40;80.60
59572;DHT22;59406;45.602;11.904;2023-04-29T15:00:43;22.40;80.50
59572;DHT22;59406;45.602;11.904;2023-04-29T15:03:09;22.40;80.80
59572;DHT22;59406;45.602;11.904;2023-04-29T15:05:35;22.40;80.70
59572;DHT22;59406;45.602;11.904;2023-04-29T15:08:01;22.40;81.00
59572;DHT22;59406;45.602;11.904;2023-04-29T15:10:28;22.40;80.90
59572;DHT22;59406;45.602;11.904;2023-04-29T15:12:54;22.40;80.70
59572;DHT22;59406;45.602;11.904;2023-04-29T15:15:21;22.40;81.00
59572;DHT22;59406;45.602;11.904;2023-04-29T15:17:47;22.50;81.10
59572;DHT22;59406;45.602;11.904;2023-04-29T15:20:13;22.40;80.90
59572;DHT22;59406;45.602;11.904;2023-04-29T15:22:39;22.40;81.80
59572;DHT22;59406;45.602;11.904;2023-04-29T15:25:06;22.50;82.20
59572;DHT22;59406;45.602;11.904;2023-04-29T15:27:33;22.40;82.40
59572;DHT22;59406;45.602;11.904;2023-04-29T15:29:59;22.50;82.50
59572;DHT22;59406;45.602;11.904;2023-04-29T15:32:26;22.50;82.50
59572;DHT22;59406;45.602;11.904;2023-04-29T15:34:59;22.40;82.00
59572;DHT22;59406;45.602;11.904;2023-04-29T15:37:27;22.40;82.10
59572;DHT22;59406;45.602;11.904;2023-04-29T15:39:53;22.40;82.40
59572;DHT22;59406;45.602;11.904;2023-04-29T15:42:19;22.50;81.90
59572;DHT22;59406;45.602;11.904;2023-04-29T15:44:45;22.40;81.40
59572;DHT22;59406;45.602;11.904;2023-04-29T15:47:11;22.40;81.60
59572;DHT22;59406;45.602;11.904;2023-04-29T15:49:37;22.40;81.50
59572;DHT22;59406;45.602;11.904;2023-04-29T15:52:04;22.40;81.60
59572;DHT22;59406;45.602;11.904;2023-04-29T15:54:30;22.40;81.90